createdAt,value
2022-08-26T00:01:56.185Z,17.73
2022-08-26T00:04:25.704Z,20.50
2022-08-26T00:06:57.162Z,18.67
2022-08-26T00:09:25.756Z,16.80
2022-08-26T00:11:54.553Z,15.13
2022-08-26T00:14:28.317Z,19.42
2022-08-26T00:16:59.149Z,16.90
2022-08-26T00:19:27.632Z,15.85
2022-08-26T00:21:55.835Z,18.52
2022-08-26T00:24:23.740Z,21.20
2022-08-26T00:26:51.591Z,15.50
2022-08-26T00:29:19.741Z,16.85
2022-08-26T00:31:48.937Z,19.55
2022-08-26T00:34:19.455Z,18.45
2022-08-26T00:36:51.747Z,14.10
2022-08-26T00:39:20.500Z,16.92
2022-08-26T00:41:48.957Z,22.33
2022-08-26T00:44:17.167Z,15.02
2022-08-26T00:46:49.175Z,17.00
2022-08-26T00:49:39.306Z,18.08
2022-08-26T00:52:11.967Z,19.20
2022-08-26T00:54:49.845Z,22.25
2022-08-26T00:57:18.970Z,18.40
2022-08-26T00:59:53.145Z,18.58
2022-08-26T01:02:21.833Z,25.50
2022-08-26T01:04:54.396Z,21.73
2022-08-26T01:07:27.579Z,28.50
2022-08-26T01:10:00.086Z,20.10
2022-08-26T01:12:32.331Z,17.10
2022-08-26T01:17:27.645Z,17.73
2022-08-26T01:20:12.641Z,20.48
2022-08-26T01:23:03.235Z,20.45
2022-08-26T01:25:33.755Z,23.35
2022-08-26T01:28:06.282Z,16.73
2022-08-26T01:30:35.843Z,21.83
2022-08-26T01:33:09.417Z,25.60
2022-08-26T01:35:38.152Z,21.20
2022-08-26T01:38:06.015Z,18.73
2022-08-26T01:40:37.609Z,22.52
2022-08-26T01:43:09.063Z,20.17
2022-08-26T01:45:40.655Z,20.73
2022-08-26T01:48:14.485Z,24.93
2022-08-26T01:50:45.356Z,18.35
2022-08-26T01:53:18.471Z,23.13
2022-08-26T01:55:53.451Z,23.50
2022-08-26T01:58:32.942Z,25.48
2022-08-26T02:01:02.455Z,23.85
2022-08-26T02:03:30.977Z,23.65
2022-08-26T02:06:04.810Z,28.67
2022-08-26T02:09:01.057Z,28.88
2022-08-26T02:11:28.965Z,21.80
2022-08-26T02:14:03.059Z,22.65
2022-08-26T02:16:38.046Z,27.10
2022-08-26T02:19:17.034Z,19.83
2022-08-26T02:21:51.001Z,19.02
2022-08-26T02:24:46.436Z,20.83
2022-08-26T02:27:15.121Z,17.13
2022-08-26T02:29:45.845Z,21.73
2022-08-26T02:32:13.791Z,24.95
2022-08-26T02:34:47.140Z,22.40
2022-08-26T02:37:15.241Z,24.08
2022-08-26T02:39:45.592Z,22.77
2022-08-26T02:42:15.579Z,24.73
2022-08-26T02:44:43.081Z,23.13
2022-08-26T02:47:14.941Z,23.83
2022-08-26T02:49:47.364Z,23.63
2022-08-26T02:52:15.470Z,19.90
2022-08-26T02:54:43.053Z,22.98
2022-08-26T02:57:13.111Z,18.58
2022-08-26T02:59:40.722Z,20.83
2022-08-26T03:02:10.849Z,15.40
2022-08-26T03:04:40.236Z,17.45
2022-08-26T03:07:08.159Z,20.00
2022-08-26T03:09:36.343Z,19.05
2022-08-26T03:12:04.436Z,20.48
2022-08-26T03:14:32.024Z,24.73
2022-08-26T03:17:01.428Z,20.85
2022-08-26T03:19:29.264Z,18.85
2022-08-26T03:21:59.041Z,16.63
2022-08-26T03:24:27.169Z,17.90
2022-08-26T03:26:54.686Z,17.50
2022-08-26T03:29:41.880Z,20.48
2022-08-26T03:32:09.809Z,21.17
2022-08-26T03:34:38.692Z,18.45
2022-08-26T03:37:06.411Z,20.02
2022-08-26T03:39:34.522Z,19.50
2022-08-26T03:42:02.104Z,18.88
2022-08-26T03:44:30.044Z,16.70
2022-08-26T03:46:58.110Z,18.60
2022-08-26T03:49:26.330Z,21.40
2022-08-26T03:51:56.547Z,20.17
2022-08-26T03:54:24.449Z,18.50
2022-08-26T03:56:51.979Z,19.75
2022-08-26T03:59:20.861Z,16.10
2022-08-26T04:01:48.516Z,18.25
2022-08-26T04:04:17.310Z,16.13
2022-08-26T04:06:47.967Z,16.88
2022-08-26T04:09:19.346Z,17.77
2022-08-26T04:11:50.727Z,16.33
2022-08-26T04:14:21.088Z,15.77
2022-08-26T04:16:52.105Z,15.38
2022-08-26T04:19:20.774Z,15.23
2022-08-26T04:21:53.142Z,16.42
2022-08-26T04:24:26.283Z,23.20
2022-08-26T04:26:56.824Z,19.25
2022-08-26T04:29:26.811Z,15.85
2022-08-26T04:31:56.228Z,14.50
2022-08-26T04:34:28.515Z,17.70
2022-08-26T04:36:58.203Z,14.48
2022-08-26T04:39:27.710Z,13.98
2022-08-26T04:41:55.947Z,14.38
2022-08-26T04:44:27.977Z,12.55
2022-08-26T04:46:56.629Z,13.27
2022-08-26T04:49:24.350Z,14.10
2022-08-26T04:51:53.942Z,18.08
2022-08-26T04:54:22.481Z,16.05
2022-08-26T04:56:50.991Z,17.38
2022-08-26T04:59:19.257Z,19.33
2022-08-26T05:01:50.231Z,18.67
2022-08-26T05:04:19.428Z,17.08
2022-08-26T05:06:48.526Z,13.82
2022-08-26T05:09:18.715Z,16.60
2022-08-26T05:11:48.549Z,14.13
2022-08-26T05:14:21.464Z,11.50
2022-08-26T05:16:50.119Z,12.70
2022-08-26T05:19:19.181Z,14.85
2022-08-26T05:21:48.916Z,13.55
2022-08-26T05:24:18.430Z,13.15
2022-08-26T05:26:48.109Z,14.07
2022-08-26T05:29:16.235Z,18.08
2022-08-26T05:31:44.429Z,16.10
2022-08-26T05:34:11.957Z,12.02
2022-08-26T05:36:40.391Z,15.02
2022-08-26T05:39:08.113Z,15.20
2022-08-26T05:41:41.513Z,11.32
2022-08-26T05:44:12.935Z,16.92
2022-08-26T05:49:12.821Z,15.43
2022-08-26T05:51:42.133Z,13.63
2022-08-26T05:54:10.387Z,16.33
2022-08-26T05:56:39.190Z,19.02
2022-08-26T05:59:14.089Z,19.20
2022-08-26T06:01:43.810Z,16.83
2022-08-26T06:04:12.443Z,13.45
2022-08-26T06:06:43.036Z,16.25
2022-08-26T06:09:12.831Z,17.05
2022-08-26T06:11:40.448Z,12.60
2022-08-26T06:14:08.594Z,18.27
2022-08-26T06:16:41.005Z,16.15
2022-08-26T06:19:10.380Z,14.10
2022-08-26T06:21:40.871Z,13.65
2022-08-26T06:24:31.715Z,11.55
2022-08-26T06:27:05.123Z,12.30
2022-08-26T06:29:34.501Z,12.25
2022-08-26T06:32:04.814Z,14.68
2022-08-26T06:34:32.921Z,11.32
2022-08-26T06:37:06.641Z,11.05
2022-08-26T06:39:34.332Z,10.63
2022-08-26T06:42:03.173Z,13.65
2022-08-26T06:44:35.065Z,10.77
2022-08-26T06:47:02.829Z,9.70
2022-08-26T06:49:30.442Z,13.10
2022-08-26T06:52:01.026Z,12.25
2022-08-26T06:54:31.884Z,10.77
2022-08-26T06:56:59.820Z,11.57
2022-08-26T06:59:27.704Z,12.95
2022-08-26T07:01:55.668Z,15.35
2022-08-26T07:04:24.819Z,10.20
2022-08-26T07:09:26.659Z,18.33
2022-08-26T07:11:56.593Z,12.00
2022-08-26T07:14:26.167Z,9.75
2022-08-26T07:16:54.336Z,9.07
2022-08-26T07:19:29.928Z,8.85
2022-08-26T07:22:04.503Z,6.72
2022-08-26T07:24:37.732Z,9.63
2022-08-26T07:27:09.771Z,7.28
2022-08-26T07:29:39.624Z,8.90
2022-08-26T07:32:08.057Z,8.23
2022-08-26T07:34:37.958Z,6.57
2022-08-26T07:37:06.370Z,10.20
2022-08-26T07:39:37.385Z,8.18
2022-08-26T07:42:07.716Z,7.38
2022-08-26T07:44:40.548Z,7.43
2022-08-26T07:47:10.504Z,5.43
2022-08-26T07:49:59.317Z,5.97
2022-08-26T07:52:29.620Z,6.90
2022-08-26T07:54:59.280Z,8.10
2022-08-26T07:57:28.229Z,5.40
2022-08-26T07:59:56.657Z,6.03
2022-08-26T08:02:25.425Z,7.75
2022-08-26T08:04:53.606Z,11.10
2022-08-26T08:07:38.795Z,6.80
2022-08-26T08:10:13.627Z,7.45
2022-08-26T08:12:41.986Z,5.60
2022-08-26T08:15:12.429Z,6.28
2022-08-26T08:17:43.766Z,5.15
2022-08-26T08:20:12.528Z,9.70
2022-08-26T08:22:40.423Z,11.73
2022-08-26T08:25:08.536Z,10.20
2022-08-26T08:27:40.106Z,4.35
2022-08-26T08:30:08.551Z,4.47
2022-08-26T08:32:40.972Z,4.60
2022-08-26T08:35:11.028Z,6.80
2022-08-26T08:37:39.707Z,9.15
2022-08-26T08:40:10.145Z,6.32
2022-08-26T08:42:58.631Z,7.97
2022-08-26T08:45:58.083Z,5.97
2022-08-26T08:48:31.151Z,6.72
2022-08-26T08:51:07.933Z,6.27
2022-08-26T08:53:39.335Z,4.35
2022-08-26T08:56:27.489Z,4.38
2022-08-26T08:59:18.114Z,6.18
2022-08-26T09:01:59.569Z,6.68
2022-08-26T09:04:52.252Z,8.13
2022-08-26T09:07:27.435Z,10.35
2022-08-26T09:10:33.686Z,7.97
2022-08-26T09:13:09.512Z,5.68
2022-08-26T09:15:47.396Z,7.85
2022-08-26T09:18:59.538Z,6.72
2022-08-26T09:21:27.568Z,5.05
2022-08-26T09:23:56.976Z,5.38
2022-08-26T09:26:30.781Z,9.52
2022-08-26T09:29:09.324Z,5.88
2022-08-26T09:31:39.354Z,7.85
2022-08-26T09:34:26.967Z,4.50
2022-08-26T09:36:59.157Z,7.40
2022-08-26T09:42:22.692Z,6.28
2022-08-26T09:45:00.510Z,4.78
2022-08-26T09:47:47.938Z,4.53
2022-08-26T09:50:36.511Z,6.63
2022-08-26T09:53:13.995Z,6.90
2022-08-26T09:55:47.974Z,6.70
2022-08-26T09:58:37.895Z,5.47
2022-08-26T10:01:15.379Z,7.88
2022-08-26T10:03:44.793Z,8.77
2022-08-26T10:06:17.771Z,5.15
2022-08-26T10:09:00.144Z,6.97
2022-08-26T10:11:47.926Z,5.50
2022-08-26T10:14:34.807Z,4.93
2022-08-26T10:17:20.503Z,5.80
2022-08-26T10:19:57.009Z,9.98
2022-08-26T10:23:14.077Z,9.68
2022-08-26T10:25:52.151Z,5.45
2022-08-26T10:28:41.814Z,7.97
2022-08-26T10:31:17.825Z,5.32
2022-08-26T10:33:47.947Z,7.43
2022-08-26T10:36:47.215Z,7.80
2022-08-26T10:39:37.094Z,10.45
2022-08-26T10:42:13.957Z,8.23
2022-08-26T10:44:43.925Z,3.78
2022-08-26T10:47:19.286Z,8.77
2022-08-26T10:49:49.600Z,6.57
2022-08-26T10:52:35.672Z,6.57
2022-08-26T10:55:11.913Z,7.22
2022-08-26T10:58:07.312Z,7.53
2022-08-26T11:01:10.449Z,4.85
2022-08-26T11:04:04.292Z,5.55
2022-08-26T11:06:32.159Z,6.95
2022-08-26T11:09:02.698Z,7.68
2022-08-26T11:11:42.368Z,3.50
2022-08-26T11:14:09.895Z,9.88
2022-08-26T11:16:45.346Z,5.85
2022-08-26T11:19:59.666Z,8.30
2022-08-26T11:22:47.990Z,4.85
2022-08-26T11:25:18.337Z,5.53
2022-08-26T11:27:50.002Z,8.98
2022-08-26T11:30:18.620Z,9.10
2022-08-26T11:32:48.684Z,9.43
2022-08-26T11:35:22.101Z,9.05
2022-08-26T11:37:57.512Z,9.77
2022-08-26T11:40:37.930Z,7.85
2022-08-26T11:43:18.975Z,4.25
2022-08-26T11:45:49.267Z,7.28
2022-08-26T11:48:43.785Z,4.80
2022-08-26T11:51:23.066Z,5.75
2022-08-26T11:53:51.473Z,3.97
2022-08-26T11:56:33.440Z,4.13
2022-08-26T11:59:07.552Z,3.55
2022-08-26T12:01:43.168Z,3.80
2022-08-26T12:04:17.833Z,3.30
2022-08-26T12:06:51.284Z,3.28
2022-08-26T12:09:33.721Z,7.32
2022-08-26T12:12:17.090Z,5.20
2022-08-26T12:14:45.387Z,3.22
2022-08-26T12:17:28.202Z,4.30
2022-08-26T12:22:30.250Z,2.60
2022-08-26T12:25:00.992Z,2.50
2022-08-26T12:27:42.683Z,3.88
2022-08-26T12:30:19.317Z,3.07
2022-08-26T12:33:21.877Z,3.50
2022-08-26T12:35:54.344Z,12.48
2022-08-26T12:38:25.981Z,6.43
2022-08-26T12:40:54.040Z,5.07
2022-08-26T12:43:42.285Z,3.88
2022-08-26T12:46:13.174Z,6.30
2022-08-26T12:48:44.918Z,5.93
2022-08-26T12:51:25.199Z,7.68
2022-08-26T12:53:53.809Z,4.50
2022-08-26T12:56:35.892Z,7.85
2022-08-26T12:59:10.308Z,5.55
2022-08-26T13:01:43.880Z,4.43
2022-08-26T13:04:33.431Z,5.45
2022-08-26T13:07:24.513Z,6.00
2022-08-26T13:09:57.961Z,3.95
2022-08-26T13:12:41.254Z,5.15
2022-08-26T13:15:09.098Z,5.70
2022-08-26T13:17:36.607Z,4.90
2022-08-26T13:20:04.799Z,5.88
2022-08-26T13:22:32.511Z,5.20
2022-08-26T13:25:00.121Z,5.45
2022-08-26T13:27:28.198Z,4.72
2022-08-26T13:29:57.891Z,7.22
2022-08-26T13:32:27.600Z,8.18
2022-08-26T13:34:56.769Z,5.50
2022-08-26T13:37:34.663Z,9.68
2022-08-26T13:40:06.617Z,6.15
2022-08-26T13:42:34.655Z,9.02
2022-08-26T13:45:02.933Z,4.97
2022-08-26T13:47:30.894Z,3.25
2022-08-26T13:49:58.534Z,4.65
2022-08-26T13:52:30.230Z,3.83
2022-08-26T13:57:30.332Z,7.13
2022-08-26T13:59:59.606Z,4.95
2022-08-26T14:02:28.520Z,4.75
2022-08-26T14:04:56.195Z,5.15
2022-08-26T14:07:23.878Z,7.68
2022-08-26T14:09:51.507Z,6.00
2022-08-26T14:12:19.014Z,4.30
2022-08-26T14:14:46.530Z,6.53
2022-08-26T14:17:21.503Z,3.40
2022-08-26T14:19:50.658Z,5.88
2022-08-26T14:22:19.913Z,3.78
2022-08-26T14:24:47.869Z,4.43
2022-08-26T14:27:15.462Z,6.57
2022-08-26T14:29:43.145Z,7.18
2022-08-26T14:32:15.615Z,4.63
2022-08-26T14:34:43.389Z,5.18
2022-08-26T14:37:15.202Z,3.95
2022-08-26T14:39:43.188Z,6.10
2022-08-26T14:42:11.161Z,2.63
2022-08-26T14:44:39.209Z,2.80
2022-08-26T14:47:07.219Z,4.88
2022-08-26T14:49:35.276Z,5.65
2022-08-26T14:52:03.037Z,3.95
2022-08-26T14:54:30.724Z,2.85
2022-08-26T14:57:05.256Z,6.32
2022-08-26T14:59:41.280Z,3.25
2022-08-26T15:02:13.615Z,7.65
2022-08-26T15:04:48.507Z,3.00
2022-08-26T15:07:16.041Z,4.43
2022-08-26T15:09:43.971Z,5.60
2022-08-26T15:12:11.514Z,3.58
2022-08-26T15:14:39.033Z,5.25
2022-08-26T15:17:06.659Z,4.35
2022-08-26T15:19:34.080Z,3.72
2022-08-26T15:22:01.555Z,4.13
2022-08-26T15:24:29.677Z,2.65
2022-08-26T15:26:57.702Z,5.05
2022-08-26T15:29:25.557Z,5.93
2022-08-26T15:31:55.244Z,2.08
2022-08-26T15:34:25.071Z,3.30
2022-08-26T15:36:52.618Z,3.83
2022-08-26T15:39:21.052Z,3.38
2022-08-26T15:41:48.568Z,2.83
2022-08-26T15:44:19.960Z,1.83
2022-08-26T15:46:49.433Z,2.33
2022-08-26T15:49:18.348Z,6.60
2022-08-26T15:51:48.355Z,2.97
2022-08-26T15:54:17.473Z,2.05
2022-08-26T15:56:47.933Z,7.03
2022-08-26T15:59:16.286Z,4.25
2022-08-26T16:01:44.337Z,3.22
2022-08-26T16:04:12.584Z,2.10
2022-08-26T16:06:42.723Z,4.65
2022-08-26T16:09:10.839Z,4.22
2022-08-26T16:11:38.549Z,3.97
2022-08-26T16:14:08.006Z,4.70
2022-08-26T16:16:39.577Z,2.30
2022-08-26T16:19:08.491Z,2.75
2022-08-26T16:21:36.622Z,3.85
2022-08-26T16:24:05.281Z,3.25
2022-08-26T16:26:35.705Z,3.83
2022-08-26T16:29:08.812Z,3.35
2022-08-26T16:31:39.512Z,3.53
2022-08-26T16:34:08.336Z,3.83
2022-08-26T16:36:38.114Z,3.40
2022-08-26T16:39:07.727Z,3.85
2022-08-26T16:41:35.641Z,2.40
2022-08-26T16:44:04.103Z,3.67
2022-08-26T16:46:35.498Z,3.55
2022-08-26T16:49:06.196Z,3.33
2022-08-26T16:51:37.700Z,4.45
2022-08-26T16:54:07.317Z,3.35
2022-08-26T16:56:35.437Z,3.53
2022-08-26T16:59:07.320Z,4.35
2022-08-26T17:01:35.426Z,3.17
2022-08-26T17:04:03.459Z,2.05
2022-08-26T17:06:31.123Z,2.55
2022-08-26T17:08:58.632Z,4.20
2022-08-26T17:11:26.305Z,2.17
2022-08-26T17:13:53.784Z,2.70
2022-08-26T17:16:26.417Z,2.38
2022-08-26T17:18:59.099Z,4.55
2022-08-26T17:21:28.261Z,5.53
2022-08-26T17:23:56.552Z,7.22
2022-08-26T17:26:24.103Z,4.35
2022-08-26T17:28:51.989Z,3.30
2022-08-26T17:31:20.637Z,3.95
2022-08-26T17:33:54.016Z,2.70
2022-08-26T17:36:23.421Z,3.17
2022-08-26T17:38:57.102Z,3.55
2022-08-26T17:41:25.353Z,2.83
2022-08-26T17:43:52.991Z,2.05
2022-08-26T17:46:20.712Z,3.13
2022-08-26T17:48:48.533Z,2.80
2022-08-26T17:51:19.528Z,2.50
2022-08-26T17:53:48.200Z,2.10
2022-08-26T17:56:18.641Z,3.85
2022-08-26T17:58:50.969Z,3.40
2022-08-26T18:01:22.815Z,2.10
2022-08-26T18:03:50.454Z,3.83
2022-08-26T18:06:18.550Z,3.10
2022-08-26T18:08:46.313Z,4.53
2022-08-26T18:11:17.367Z,5.35
2022-08-26T18:13:47.358Z,2.80
2022-08-26T18:16:17.422Z,2.63
2022-08-26T18:18:46.721Z,3.22
2022-08-26T18:21:20.630Z,2.92
2022-08-26T18:23:49.673Z,3.38
2022-08-26T18:26:23.270Z,8.38
2022-08-26T18:28:51.039Z,2.35
2022-08-26T18:31:19.611Z,3.25
2022-08-26T18:33:47.771Z,3.70
2022-08-26T18:36:28.585Z,4.13
2022-08-26T18:38:57.027Z,4.25
2022-08-26T18:41:26.363Z,2.38
2022-08-26T18:43:57.134Z,4.35
2022-08-26T18:46:27.216Z,2.55
2022-08-26T18:48:57.591Z,2.10
2022-08-26T18:51:32.480Z,5.28
2022-08-26T18:54:01.627Z,4.00
2022-08-26T18:56:29.575Z,3.30
2022-08-26T18:58:59.295Z,3.67
2022-08-26T19:01:28.601Z,3.67
2022-08-26T19:04:01.593Z,2.40
2022-08-26T19:06:33.036Z,2.58
2022-08-26T19:09:00.895Z,2.23
2022-08-26T19:11:32.333Z,2.53
2022-08-26T19:14:10.632Z,2.20
2022-08-26T19:16:39.110Z,2.08
2022-08-26T19:19:07.590Z,2.60
2022-08-26T19:21:36.916Z,2.10
2022-08-26T19:24:08.944Z,2.33
2022-08-26T19:26:36.803Z,2.97
2022-08-26T19:29:04.569Z,2.10
2022-08-26T19:31:32.051Z,5.93
2022-08-26T19:33:59.805Z,3.13
2022-08-26T19:36:28.839Z,4.22
2022-08-26T19:38:56.947Z,2.97
2022-08-26T19:41:34.164Z,2.35
2022-08-26T19:44:10.636Z,2.83
2022-08-26T19:49:11.219Z,3.33
2022-08-26T19:51:39.360Z,1.95
2022-08-26T19:54:06.999Z,5.00
2022-08-26T19:56:35.163Z,2.45
2022-08-26T19:59:02.779Z,2.90
2022-08-26T20:01:31.038Z,5.43
2022-08-26T20:03:58.662Z,2.42
2022-08-26T20:06:26.312Z,3.75
2022-08-26T20:08:56.296Z,3.13
2022-08-26T20:11:24.852Z,5.03
2022-08-26T20:13:52.314Z,3.28
2022-08-26T20:16:19.952Z,2.80
2022-08-26T20:19:05.820Z,2.50
2022-08-26T20:21:39.419Z,4.30
2022-08-26T20:24:11.314Z,1.77
2022-08-26T20:26:41.024Z,2.38
2022-08-26T20:29:10.854Z,3.47
2022-08-26T20:31:39.373Z,2.97
2022-08-26T20:34:07.613Z,2.25
2022-08-26T20:36:35.270Z,3.90
2022-08-26T20:39:03.104Z,2.30
2022-08-26T20:41:31.662Z,2.80
2022-08-26T20:44:00.722Z,2.22
2022-08-26T20:46:28.570Z,2.75
2022-08-26T20:48:57.711Z,3.10
2022-08-26T20:51:26.428Z,2.53
2022-08-26T20:53:54.020Z,2.30
2022-08-26T20:56:24.502Z,2.42
2022-08-26T20:58:56.381Z,2.38
2022-08-26T21:01:30.704Z,2.30
2022-08-26T21:03:58.456Z,2.60
2022-08-26T21:06:26.150Z,4.88
2022-08-26T21:08:54.198Z,2.20
2022-08-26T21:11:22.815Z,3.28
2022-08-26T21:14:06.893Z,2.40
2022-08-26T21:16:39.389Z,3.10
2022-08-26T21:19:10.898Z,3.17
2022-08-26T21:21:39.271Z,2.28
2022-08-26T21:24:07.010Z,2.20
2022-08-26T21:26:34.876Z,3.30
2022-08-26T21:29:03.499Z,7.18
2022-08-26T21:31:32.350Z,4.03
2022-08-26T21:34:00.591Z,4.22
2022-08-26T21:36:28.663Z,2.83
2022-08-26T21:39:00.541Z,3.60
2022-08-26T21:41:28.361Z,2.97
2022-08-26T21:43:59.386Z,3.83
2022-08-26T21:46:29.429Z,3.28
2022-08-26T21:48:59.931Z,3.88
2022-08-26T21:51:30.246Z,2.75
2022-08-26T21:54:01.103Z,2.53
2022-08-26T21:56:31.909Z,4.63
2022-08-26T21:59:00.763Z,2.83
2022-08-26T22:01:32.707Z,2.10
2022-08-26T22:04:00.489Z,3.67
2022-08-26T22:06:29.869Z,2.35
2022-08-26T22:08:58.007Z,3.20
2022-08-26T22:11:27.753Z,3.45
2022-08-26T22:13:57.212Z,2.13
2022-08-26T22:16:27.007Z,3.50
2022-08-26T22:18:55.538Z,5.10
2022-08-26T22:21:25.220Z,3.63
2022-08-26T22:23:56.231Z,3.63
2022-08-26T22:26:29.044Z,4.57
2022-08-26T22:28:58.849Z,3.85
2022-08-26T22:31:37.912Z,3.42
2022-08-26T22:34:09.739Z,2.90
2022-08-26T22:36:43.762Z,3.67
2022-08-26T22:39:18.644Z,3.03
2022-08-26T22:41:48.406Z,2.30
2022-08-26T22:44:18.334Z,2.40
2022-08-26T22:46:46.961Z,2.25
2022-08-26T22:49:18.582Z,3.47
2022-08-26T22:51:46.816Z,2.20
2022-08-26T22:54:24.739Z,4.00
2022-08-26T22:56:52.257Z,4.75
2022-08-26T22:59:19.980Z,2.95
2022-08-26T23:01:47.663Z,2.80
2022-08-26T23:04:15.199Z,2.58
2022-08-26T23:06:47.450Z,3.75
2022-08-26T23:09:18.594Z,2.13
2022-08-26T23:11:48.096Z,2.33
2022-08-26T23:14:17.159Z,3.80
2022-08-26T23:16:45.229Z,3.25
2022-08-26T23:19:15.149Z,3.47
2022-08-26T23:21:42.746Z,3.92
2022-08-26T23:24:11.087Z,2.90
2022-08-26T23:26:40.787Z,4.97
2022-08-26T23:29:10.352Z,2.85
2022-08-26T23:31:40.013Z,5.93
2022-08-26T23:34:26.133Z,2.40
2022-08-26T23:36:57.177Z,2.60
2022-08-26T23:39:25.819Z,3.83
2022-08-26T23:41:53.496Z,2.28
2022-08-26T23:44:21.120Z,2.67
2022-08-26T23:46:48.639Z,2.47
2022-08-26T23:49:16.283Z,2.40
2022-08-26T23:52:02.304Z,2.20
2022-08-26T23:54:29.897Z,2.35
2022-08-26T23:56:57.439Z,2.58
2022-08-26T23:59:25.393Z,3.30
